createdAt,value
2023-10-09T00:01:06.428Z,0.24
2023-10-09T00:09:58.939Z,0.09
2023-10-09T00:18:30.876Z,-0.08
2023-10-09T00:27:15.321Z,-0.21
2023-10-09T00:35:45.088Z,-0.16
2023-10-09T00:44:09.061Z,-0.06
2023-10-09T00:52:41.599Z,-0.08
2023-10-09T01:01:06.159Z,-0.18
2023-10-09T01:09:29.562Z,-0.23
2023-10-09T01:17:52.649Z,-0.15
2023-10-09T01:26:15.749Z,-0.06
2023-10-09T01:34:51.302Z,-0.13
2023-10-09T01:43:20.152Z,-0.23
2023-10-09T01:51:43.199Z,-0.32
2023-10-09T02:00:08.511Z,-0.23
2023-10-09T02:08:38.249Z,-0.14
2023-10-09T02:17:04.110Z,-0.20
2023-10-09T02:25:35.487Z,-0.24
2023-10-09T02:33:58.497Z,-0.27
2023-10-09T02:42:24.873Z,-0.07
2023-10-09T02:50:48.517Z,0.14
2023-10-09T02:59:11.628Z,0.20
2023-10-09T03:07:35.521Z,0.23
2023-10-09T03:15:58.577Z,0.26
2023-10-09T03:24:23.879Z,0.44
2023-10-09T03:32:52.055Z,0.62
2023-10-09T03:41:17.462Z,0.71
2023-10-09T03:49:40.870Z,0.69
2023-10-09T03:58:04.043Z,0.66
2023-10-09T04:06:34.912Z,0.74
2023-10-09T04:15:04.867Z,0.76
2023-10-09T04:23:36.782Z,0.74
2023-10-09T04:32:02.070Z,0.70
2023-10-09T04:41:03.566Z,0.70
2023-10-09T04:49:29.117Z,0.85
2023-10-09T04:58:03.174Z,1.02
2023-10-09T05:06:55.831Z,1.05
2023-10-09T05:15:19.401Z,1.08
2023-10-09T05:24:11.479Z,1.17
2023-10-09T05:32:44.502Z,1.23
2023-10-09T05:41:27.429Z,1.34
2023-10-09T05:49:58.757Z,1.43
2023-10-09T05:58:40.225Z,1.57
2023-10-09T06:07:13.644Z,1.77
2023-10-09T06:15:49.034Z,1.93
2023-10-09T06:24:19.259Z,2.14
2023-10-09T06:32:59.486Z,2.39
2023-10-09T06:41:36.292Z,2.60
2023-10-09T06:50:34.710Z,2.79
2023-10-09T06:59:06.431Z,2.90
2023-10-09T07:07:36.634Z,3.17
2023-10-09T07:16:19.750Z,3.45
2023-10-09T07:24:51.024Z,3.66
2023-10-09T07:33:14.677Z,3.94
2023-10-09T07:41:40.651Z,4.36
2023-10-09T07:50:05.147Z,4.93
2023-10-09T07:58:30.053Z,5.61
2023-10-09T08:07:59.990Z,6.22
2023-10-09T08:15:52.616Z,6.65
2023-10-09T08:24:34.711Z,7.12
2023-10-09T08:41:31.455Z,7.99
2023-10-09T08:49:54.734Z,8.46
2023-10-09T08:58:32.345Z,9.10
2023-10-09T09:06:55.341Z,9.56
2023-10-09T09:15:22.563Z,9.84
2023-10-09T09:23:58.504Z,10.17
2023-10-09T09:32:39.790Z,10.22
2023-10-09T09:41:08.750Z,10.38
2023-10-09T09:49:32.972Z,10.60
2023-10-09T09:57:58.544Z,11.10
2023-10-09T10:06:22.890Z,11.18
2023-10-09T10:15:19.958Z,10.73
2023-10-09T10:23:48.557Z,10.60
2023-10-09T10:32:12.220Z,10.47
2023-10-09T10:41:01.242Z,10.32
2023-10-09T10:49:26.543Z,10.15
2023-10-09T10:57:57.267Z,9.95
2023-10-09T11:06:38.845Z,9.81
2023-10-09T11:15:09.090Z,9.55
2023-10-09T11:23:52.951Z,9.45
2023-10-09T11:32:24.772Z,9.55
2023-10-09T11:40:54.694Z,9.60
2023-10-09T11:59:39.102Z,9.24
2023-10-09T12:08:03.958Z,8.99
2023-10-09T12:16:30.051Z,9.02
2023-10-09T12:24:54.265Z,9.01
2023-10-09T12:33:19.505Z,8.84
2023-10-09T12:41:42.759Z,8.58
2023-10-09T12:50:15.024Z,8.56
2023-10-09T12:58:41.857Z,8.57
2023-10-09T13:07:08.720Z,8.52
2023-10-09T13:15:43.844Z,8.33
2023-10-09T13:24:14.423Z,8.28
2023-10-09T13:32:38.066Z,8.34
2023-10-09T13:41:02.529Z,8.34
2023-10-09T13:49:31.316Z,8.25
2023-10-09T13:57:58.746Z,8.12
2023-10-09T14:06:31.449Z,8.05
2023-10-09T14:14:57.220Z,8.10
2023-10-09T14:23:21.832Z,7.93
2023-10-09T14:31:50.724Z,7.95
2023-10-09T14:40:14.659Z,8.11
2023-10-09T14:48:39.187Z,8.03
2023-10-09T14:57:02.137Z,7.89
2023-10-09T15:05:25.140Z,7.76
2023-10-09T15:13:48.329Z,7.74
2023-10-09T15:22:12.715Z,7.63
2023-10-09T15:30:35.789Z,7.53
2023-10-09T15:39:00.527Z,7.39
2023-10-09T15:47:23.662Z,7.40
2023-10-09T15:55:47.532Z,7.35
2023-10-09T16:04:14.304Z,7.10
2023-10-09T16:12:41.417Z,6.80
2023-10-09T16:21:10.308Z,6.57
2023-10-09T16:29:33.945Z,6.15
2023-10-09T16:37:59.499Z,5.70
2023-10-09T16:46:23.579Z,5.49
2023-10-09T16:54:46.607Z,5.30
2023-10-09T17:03:10.563Z,4.97
2023-10-09T17:11:38.121Z,4.60
2023-10-09T17:20:11.249Z,4.37
2023-10-09T17:28:34.301Z,4.17
2023-10-09T17:36:59.477Z,3.97
2023-10-09T17:45:24.422Z,3.69
2023-10-09T17:53:48.017Z,3.52
2023-10-09T18:02:17.728Z,3.42
2023-10-09T18:10:44.946Z,3.25
2023-10-09T18:19:13.647Z,3.00
2023-10-09T18:27:37.504Z,2.90
2023-10-09T18:36:10.839Z,2.86
2023-10-09T18:44:35.387Z,2.72
2023-10-09T18:53:03.616Z,2.61
2023-10-09T19:01:31.360Z,2.71
2023-10-09T19:09:56.442Z,2.90
2023-10-09T19:18:24.935Z,2.97
2023-10-09T19:26:50.729Z,2.94
2023-10-09T19:35:14.530Z,3.03
2023-10-09T19:43:40.762Z,3.16
2023-10-09T19:52:06.428Z,3.18
2023-10-09T20:00:32.456Z,3.12
2023-10-09T20:08:55.725Z,3.15
2023-10-09T20:17:18.759Z,3.14
2023-10-09T20:25:41.680Z,3.15
2023-10-09T20:34:10.283Z,3.25
2023-10-09T20:42:33.234Z,3.29
2023-10-09T20:50:56.328Z,3.30
2023-10-09T20:59:20.006Z,3.39
2023-10-09T21:07:47.397Z,3.48
2023-10-09T21:16:13.596Z,3.53
2023-10-09T21:24:37.479Z,3.70
2023-10-09T21:33:00.785Z,3.75
2023-10-09T21:41:24.079Z,3.78
2023-10-09T21:49:47.075Z,3.90
2023-10-09T21:58:11.906Z,3.97
2023-10-09T22:06:34.984Z,3.91
2023-10-09T22:14:58.434Z,3.82
2023-10-09T22:23:32.397Z,3.87
2023-10-09T22:31:56.056Z,4.01
2023-10-09T22:40:27.748Z,3.89
2023-10-09T22:49:01.029Z,3.57
2023-10-09T22:57:24.019Z,3.32
2023-10-09T23:05:47.643Z,3.05
2023-10-09T23:14:16.850Z,2.61
2023-10-09T23:22:49.752Z,2.33
2023-10-09T23:31:23.506Z,2.07
2023-10-09T23:39:56.235Z,1.79
2023-10-09T23:48:25.129Z,1.56
2023-10-09T23:57:00.307Z,1.41
